createdAt,value
2018-05-10T00:00:40.997Z,1007.45
2018-05-10T00:01:41.021Z,1007.43
2018-05-10T00:02:41.095Z,1007.46
2018-05-10T00:03:41.060Z,1007.44
2018-05-10T00:04:41.171Z,1007.43
2018-05-10T00:05:41.235Z,1007.46
2018-05-10T00:06:41.014Z,1007.45
2018-05-10T00:07:41.089Z,1007.4
2018-05-10T00:08:41.041Z,1007.43
2018-05-10T00:09:41.038Z,1007.45
2018-05-10T00:10:41.224Z,1007.49
2018-05-10T00:11:40.946Z,1007.5
2018-05-10T00:12:41.124Z,1007.51
2018-05-10T00:13:41.034Z,1007.49
2018-05-10T00:14:41.143Z,1007.52
2018-05-10T00:15:41.177Z,1007.52
2018-05-10T00:16:41.125Z,1007.53
2018-05-10T00:17:41.056Z,1007.53
2018-05-10T00:18:41.297Z,1007.49
2018-05-10T00:19:41.128Z,1007.47
2018-05-10T00:20:41.070Z,1007.49
2018-05-10T00:21:41.448Z,1007.44
2018-05-10T00:22:51.017Z,1007.46
2018-05-10T00:23:41.281Z,1007.44
2018-05-10T00:24:41.113Z,1007.43
2018-05-10T00:25:41.143Z,1007.44
2018-05-10T00:26:40.991Z,1007.43
2018-05-10T00:27:40.960Z,1007.39
2018-05-10T00:28:41.204Z,1007.39
2018-05-10T00:29:41.170Z,1007.32
2018-05-10T00:30:41.047Z,1007.33
2018-05-10T00:31:41.184Z,1007.32
2018-05-10T00:32:41.046Z,1007.31
2018-05-10T00:33:40.961Z,1007.34
2018-05-10T00:34:41.179Z,1007.28
2018-05-10T00:35:41.059Z,1007.25
2018-05-10T00:36:41.021Z,1007.24
2018-05-10T00:37:41.297Z,1007.23
2018-05-10T00:38:41.097Z,1007.25
2018-05-10T00:39:41.021Z,1007.25
2018-05-10T00:40:41.115Z,1007.25
2018-05-10T00:41:41.008Z,1007.3
2018-05-10T00:42:41.092Z,1007.28
2018-05-10T00:43:41.021Z,1007.29
2018-05-10T00:44:41.110Z,1007.23
2018-05-10T00:45:41.211Z,1007.25
2018-05-10T00:46:41.203Z,1007.28
2018-05-10T00:47:41.082Z,1007.27
2018-05-10T00:48:41.159Z,1007.31
2018-05-10T00:49:40.892Z,1007.29
2018-05-10T00:50:41.005Z,1007.3
2018-05-10T00:51:41.034Z,1007.35
2018-05-10T00:52:41.022Z,1007.34
2018-05-10T00:53:41.199Z,1007.34
2018-05-10T00:54:41.039Z,1007.29
2018-05-10T00:55:40.986Z,1007.34
2018-05-10T00:56:41.198Z,1007.29
2018-05-10T00:57:41.001Z,1007.22
2018-05-10T00:58:41.093Z,1007.28
2018-05-10T00:59:41.070Z,1007.23
2018-05-10T01:00:41.002Z,1007.2
2018-05-10T01:01:40.931Z,1007.15
2018-05-10T01:02:41.193Z,1007.19
2018-05-10T01:03:40.990Z,1007.16
2018-05-10T01:04:41.238Z,1007.15
2018-05-10T01:05:41.116Z,1007.18
2018-05-10T01:06:41.068Z,1007.17
2018-05-10T01:07:40.989Z,1007.17
2018-05-10T01:08:41.242Z,1007.25
2018-05-10T01:09:41.089Z,1007.26
2018-05-10T01:10:41.143Z,1007.24
2018-05-10T01:11:41.058Z,1007.28
2018-05-10T01:12:40.928Z,1007.27
2018-05-10T01:13:41.089Z,1007.24
2018-05-10T01:14:41.080Z,1007.21
2018-05-10T01:15:41.210Z,1007.28
2018-05-10T01:16:41.234Z,1007.23
2018-05-10T01:17:40.966Z,1007.23
2018-05-10T01:18:41.221Z,1007.2
2018-05-10T01:19:41.185Z,1007.26
2018-05-10T01:20:41.031Z,1007.24
2018-05-10T01:21:41.003Z,1007.23
2018-05-10T01:22:41.196Z,1007.24
2018-05-10T01:23:40.944Z,1007.31
2018-05-10T01:24:41.146Z,1007.34
2018-05-10T01:25:40.992Z,1007.38
2018-05-10T01:26:41.024Z,1007.38
2018-05-10T01:27:41.139Z,1007.35
2018-05-10T01:28:41.022Z,1007.39
2018-05-10T01:29:41.015Z,1007.42
2018-05-10T01:30:41.127Z,1007.37
2018-05-10T01:31:41.120Z,1007.37
2018-05-10T01:32:41.138Z,1007.3
2018-05-10T01:33:41.271Z,1007.33
2018-05-10T01:34:40.955Z,1007.31
2018-05-10T01:35:41.172Z,1007.27
2018-05-10T01:36:41.028Z,1007.24
2018-05-10T01:37:41.194Z,1007.21
2018-05-10T01:38:41.092Z,1007.19
2018-05-10T01:39:41.216Z,1007.17
2018-05-10T01:40:41.007Z,1007.12
2018-05-10T01:41:41.135Z,1007.07
2018-05-10T01:42:41.153Z,1007.08
2018-05-10T01:43:41.304Z,1007.09
2018-05-10T01:44:41.065Z,1007.04
2018-05-10T01:45:41.020Z,1007.04
2018-05-10T01:46:41.226Z,1007.06
2018-05-10T01:47:41.239Z,1007.07
2018-05-10T01:48:41.108Z,1007.06
2018-05-10T01:49:41.052Z,1007.03
2018-05-10T01:50:41.188Z,1007.05
2018-05-10T01:51:41.171Z,1007.05
2018-05-10T01:52:40.921Z,1007
2018-05-10T01:53:41.066Z,1006.99
2018-05-10T01:54:41.032Z,1006.99
2018-05-10T01:55:41.164Z,1006.98
2018-05-10T01:56:40.978Z,1006.99
2018-05-10T01:57:41.148Z,1006.96
2018-05-10T01:58:41.244Z,1006.97
2018-05-10T01:59:41.117Z,1006.97
2018-05-10T02:00:41.056Z,1006.99
2018-05-10T02:01:41.017Z,1007.02
2018-05-10T02:02:41.165Z,1007.01
2018-05-10T02:03:41.180Z,1007.06
2018-05-10T02:04:41.090Z,1007.05
2018-05-10T02:05:41.156Z,1007.03
2018-05-10T02:06:41.096Z,1007.01
2018-05-10T02:07:40.963Z,1007.01
2018-05-10T02:08:41.082Z,1007.03
2018-05-10T02:09:40.972Z,1007.02
2018-05-10T02:10:40.969Z,1007.05
2018-05-10T02:11:41.089Z,1007.02
2018-05-10T02:12:41.120Z,1007.05
2018-05-10T02:13:41.140Z,1007.15
2018-05-10T02:14:41.205Z,1007.12
2018-05-10T02:15:41.109Z,1007.11
2018-05-10T02:16:41.141Z,1007.12
2018-05-10T02:17:40.963Z,1007.11
2018-05-10T02:18:40.922Z,1007.1
2018-05-10T02:19:41.168Z,1007.12
2018-05-10T02:20:41.125Z,1007.09
2018-05-10T02:21:41.171Z,1007.1
2018-05-10T02:22:41.054Z,1007.09
2018-05-10T02:23:41.027Z,1007.11
2018-05-10T02:24:41.028Z,1007.14
2018-05-10T02:25:41.080Z,1007.12
2018-05-10T02:26:40.877Z,1007.15
2018-05-10T02:27:41.072Z,1007.16
2018-05-10T02:28:41.013Z,1007.2
2018-05-10T02:29:41.165Z,1007.22
2018-05-10T02:30:41.096Z,1007.26
2018-05-10T02:31:41.190Z,1007.27
2018-05-10T02:32:41.080Z,1007.34
2018-05-10T02:33:41.048Z,1007.38
2018-05-10T02:34:41.117Z,1007.45
2018-05-10T02:35:41.164Z,1007.51
2018-05-10T02:36:41.161Z,1007.48
2018-05-10T02:37:41.014Z,1007.48
2018-05-10T02:38:40.953Z,1007.46
2018-05-10T02:39:41.204Z,1007.46
2018-05-10T02:41:00.436Z,1007.44
2018-05-10T02:41:40.994Z,1007.45
2018-05-10T02:42:41.090Z,1007.47
2018-05-10T02:43:40.987Z,1007.46
2018-05-10T02:44:41.199Z,1007.51
2018-05-10T02:45:40.926Z,1007.53
2018-05-10T02:46:41.036Z,1007.49
2018-05-10T02:47:41.158Z,1007.51
2018-05-10T02:48:40.981Z,1007.51
2018-05-10T02:49:41.214Z,1007.51
2018-05-10T02:50:41.012Z,1007.5
2018-05-10T02:51:40.981Z,1007.57
2018-05-10T02:52:41.130Z,1007.52
2018-05-10T02:53:41.062Z,1007.55
2018-05-10T02:54:41.238Z,1007.57
2018-05-10T02:55:41.065Z,1007.58
2018-05-10T02:56:41.158Z,1007.6
2018-05-10T02:57:41.169Z,1007.6
2018-05-10T02:58:41.074Z,1007.61
2018-05-10T02:59:40.965Z,1007.64
2018-05-10T03:00:41.135Z,1007.64
2018-05-10T03:01:41.521Z,1007.67
2018-05-10T03:02:41.159Z,1007.69
2018-05-10T03:03:41.024Z,1007.65
2018-05-10T03:04:41.153Z,1007.67
2018-05-10T03:05:41.015Z,1007.68
2018-05-10T03:06:41.164Z,1007.71
2018-05-10T03:07:41.061Z,1007.76
2018-05-10T03:08:40.897Z,1007.77
2018-05-10T03:09:41.041Z,1007.74
2018-05-10T03:10:41.067Z,1007.76
2018-05-10T03:11:40.925Z,1007.77
2018-05-10T03:12:41.105Z,1007.76
2018-05-10T03:13:40.952Z,1007.83
2018-05-10T03:14:41.074Z,1007.82
2018-05-10T03:15:41.082Z,1007.81
2018-05-10T03:16:41.125Z,1007.82
2018-05-10T03:17:40.979Z,1007.81
2018-05-10T03:18:41.075Z,1007.79
2018-05-10T03:19:40.911Z,1007.83
2018-05-10T03:20:40.929Z,1007.84
2018-05-10T03:21:40.997Z,1007.87
2018-05-10T03:22:40.867Z,1007.89
2018-05-10T03:23:41.002Z,1007.9
2018-05-10T03:24:41.020Z,1007.85
2018-05-10T03:25:41.075Z,1007.9
2018-05-10T03:26:41.002Z,1007.86
2018-05-10T03:27:40.912Z,1007.88
2018-05-10T03:28:40.977Z,1007.91
2018-05-10T03:29:41.122Z,1007.92
2018-05-10T03:30:40.876Z,1007.96
2018-05-10T03:31:41.137Z,1007.94
2018-05-10T03:32:41.024Z,1007.95
2018-05-10T03:33:41.210Z,1007.96
2018-05-10T03:34:41.001Z,1007.99
2018-05-10T03:35:40.889Z,1007.95
2018-05-10T03:36:41.144Z,1007.97
2018-05-10T03:37:41.013Z,1007.99
2018-05-10T03:38:41.155Z,1007.99
2018-05-10T03:39:41.128Z,1008.03
2018-05-10T03:40:41.017Z,1008.02
2018-05-10T03:41:40.879Z,1008.02
2018-05-10T03:42:41.061Z,1008.05
2018-05-10T03:43:41.150Z,1008.09
2018-05-10T03:44:41.145Z,1008.06
2018-05-10T03:45:40.956Z,1008.13
2018-05-10T03:46:40.979Z,1008.15
2018-05-10T03:47:41.185Z,1008.21
2018-05-10T03:48:40.892Z,1008.24
2018-05-10T03:49:41.117Z,1008.26
2018-05-10T03:50:41.115Z,1008.26
2018-05-10T03:51:41.102Z,1008.29
2018-05-10T03:52:41.005Z,1008.31
2018-05-10T03:53:40.952Z,1008.32
2018-05-10T03:54:41.070Z,1008.34
2018-05-10T03:55:41.053Z,1008.37
2018-05-10T03:56:40.884Z,1008.36
2018-05-10T03:57:41.171Z,1008.36
2018-05-10T03:58:40.979Z,1008.37
2018-05-10T03:59:41.011Z,1008.37
2018-05-10T04:00:40.919Z,1008.35
2018-05-10T04:01:41.169Z,1008.38
2018-05-10T04:02:40.965Z,1008.36
2018-05-10T04:03:40.960Z,1008.37
2018-05-10T04:04:41.032Z,1008.35
2018-05-10T04:05:41.155Z,1008.41
2018-05-10T04:06:40.995Z,1008.38
2018-05-10T04:07:41.027Z,1008.37
2018-05-10T04:08:41.076Z,1008.41
2018-05-10T04:09:41.149Z,1008.41
2018-05-10T04:10:41.025Z,1008.37
2018-05-10T04:11:41.021Z,1008.36
2018-05-10T04:12:41.040Z,1008.37
2018-05-10T04:13:41.002Z,1008.37
2018-05-10T04:14:40.964Z,1008.37
2018-05-10T04:15:41.009Z,1008.4
2018-05-10T04:16:41.002Z,1008.36
2018-05-10T04:17:40.940Z,1008.38
2018-05-10T04:18:40.872Z,1008.37
2018-05-10T04:19:40.963Z,1008.43
2018-05-10T04:20:41.040Z,1008.45
2018-05-10T04:21:40.903Z,1008.43
2018-05-10T04:22:40.955Z,1008.46
2018-05-10T04:23:41.139Z,1008.46
2018-05-10T04:24:40.964Z,1008.53
2018-05-10T04:25:40.900Z,1008.46
2018-05-10T04:26:41.116Z,1008.49
2018-05-10T04:27:40.935Z,1008.58
2018-05-10T04:28:41.074Z,1008.56
2018-05-10T04:29:40.973Z,1008.55
2018-05-10T04:30:41.029Z,1008.6
2018-05-10T04:31:40.969Z,1008.64
2018-05-10T04:32:41.069Z,1008.61
2018-05-10T04:33:40.956Z,1008.6
2018-05-10T04:34:41.086Z,1008.66
2018-05-10T04:35:41.469Z,1008.63
2018-05-10T04:36:40.888Z,1008.65
2018-05-10T04:37:41.084Z,1008.66
2018-05-10T04:38:40.906Z,1008.68
2018-05-10T04:39:40.943Z,1008.68
2018-05-10T04:40:41.063Z,1008.66
2018-05-10T04:41:40.927Z,1008.66
2018-05-10T04:42:40.992Z,1008.66
2018-05-10T04:43:40.929Z,1008.7
2018-05-10T04:44:41.136Z,1008.66
2018-05-10T04:45:41.032Z,1008.74
2018-05-10T04:46:40.857Z,1008.74
2018-05-10T04:47:40.852Z,1008.73
2018-05-10T04:48:41.156Z,1008.74
2018-05-10T04:49:41.129Z,1008.73
2018-05-10T04:50:40.871Z,1008.74
2018-05-10T04:51:40.950Z,1008.74
2018-05-10T04:52:41.094Z,1008.72
2018-05-10T04:53:41.063Z,1008.74
2018-05-10T04:54:41.246Z,1008.78
2018-05-10T04:55:40.926Z,1008.77
2018-05-10T04:56:41.092Z,1008.77
2018-05-10T04:57:41.031Z,1008.8
2018-05-10T04:58:40.911Z,1008.81
2018-05-10T04:59:41.006Z,1008.85
2018-05-10T05:00:40.922Z,1008.84
2018-05-10T05:01:40.891Z,1008.87
2018-05-10T05:02:41.035Z,1008.86
2018-05-10T05:03:40.914Z,1008.89
2018-05-10T05:04:40.978Z,1008.88
2018-05-10T05:05:41.129Z,1008.89
2018-05-10T05:06:41.011Z,1008.86
2018-05-10T05:07:41.032Z,1008.84
2018-05-10T05:08:41.259Z,1008.87
2018-05-10T05:09:40.868Z,1008.81
2018-05-10T05:10:41.044Z,1008.81
2018-05-10T05:11:40.974Z,1008.84
2018-05-10T05:12:41.040Z,1008.81
2018-05-10T05:13:40.928Z,1008.83
2018-05-10T05:14:40.894Z,1008.78
2018-05-10T05:15:40.923Z,1008.8
2018-05-10T05:16:41.104Z,1008.78
2018-05-10T05:17:41.023Z,1008.74
2018-05-10T05:18:40.942Z,1008.79
2018-05-10T05:19:41.019Z,1008.84
2018-05-10T05:20:40.916Z,1008.86
2018-05-10T05:21:41.043Z,1008.87
2018-05-10T05:22:41.096Z,1008.87
2018-05-10T05:23:41.147Z,1008.92
2018-05-10T05:24:41.034Z,1008.92
2018-05-10T05:25:40.912Z,1008.89
2018-05-10T05:26:41.122Z,1008.92
2018-05-10T05:27:40.930Z,1008.96
2018-05-10T05:28:41.050Z,1008.98
2018-05-10T05:29:40.942Z,1008.99
2018-05-10T05:30:40.945Z,1009.01
2018-05-10T05:31:40.873Z,1009.03
2018-05-10T05:32:41.147Z,1009.05
2018-05-10T05:33:41.040Z,1009.11
2018-05-10T05:34:41.078Z,1009.15
2018-05-10T05:35:41.199Z,1009.13
2018-05-10T05:36:41.204Z,1009.17
2018-05-10T05:37:40.912Z,1009.21
2018-05-10T05:38:41.105Z,1009.29
2018-05-10T05:39:41.077Z,1009.26
2018-05-10T05:40:41.066Z,1009.35
2018-05-10T05:41:41.065Z,1009.38
2018-05-10T05:42:40.897Z,1009.39
2018-05-10T05:43:40.927Z,1009.44
2018-05-10T05:44:41.050Z,1009.44
2018-05-10T05:45:41.147Z,1009.51
2018-05-10T05:46:41.092Z,1009.51
2018-05-10T05:47:41.226Z,1009.52
2018-05-10T05:48:40.937Z,1009.56
2018-05-10T05:49:40.892Z,1009.56
2018-05-10T05:50:40.879Z,1009.6
2018-05-10T05:51:40.976Z,1009.61
2018-05-10T05:52:41.074Z,1009.67
2018-05-10T05:53:40.797Z,1009.67
2018-05-10T05:54:40.821Z,1009.71
2018-05-10T05:55:40.976Z,1009.7
2018-05-10T05:56:40.963Z,1009.71
2018-05-10T05:57:40.983Z,1009.73
2018-05-10T05:58:41.005Z,1009.71
2018-05-10T05:59:40.895Z,1009.71
2018-05-10T06:00:40.858Z,1009.6
2018-05-10T06:01:41.063Z,1009.67
2018-05-10T06:02:41.181Z,1009.66
2018-05-10T06:03:41.062Z,1009.62
2018-05-10T06:04:40.882Z,1009.62
2018-05-10T06:05:41.228Z,1009.61
2018-05-10T06:06:41.068Z,1009.63
2018-05-10T06:07:40.881Z,1009.63
2018-05-10T06:08:41.210Z,1009.67
2018-05-10T06:09:40.939Z,1009.67
2018-05-10T06:10:40.911Z,1009.63
2018-05-10T06:11:41.031Z,1009.66
2018-05-10T06:12:40.928Z,1009.7
2018-05-10T06:13:41.377Z,1009.74
2018-05-10T06:14:40.957Z,1009.66
2018-05-10T06:15:41.033Z,1009.71
2018-05-10T06:16:40.901Z,1009.72
2018-05-10T06:17:40.927Z,1009.73
2018-05-10T06:18:41.171Z,1009.77
2018-05-10T06:19:41.060Z,1009.77
2018-05-10T06:20:41.255Z,1009.77
2018-05-10T06:21:41.009Z,1009.74
2018-05-10T06:22:41.012Z,1009.78
2018-05-10T06:23:41.251Z,1009.78
2018-05-10T06:24:41.004Z,1009.82
2018-05-10T06:25:41.006Z,1009.83
2018-05-10T06:26:40.820Z,1009.79
2018-05-10T06:27:40.981Z,1009.82
2018-05-10T06:28:41.096Z,1009.8
2018-05-10T06:29:40.957Z,1009.85
2018-05-10T06:30:41.005Z,1009.86
2018-05-10T06:31:41.074Z,1009.84
2018-05-10T06:32:41.079Z,1009.87
2018-05-10T06:33:40.965Z,1009.88
2018-05-10T06:34:41.081Z,1009.89
2018-05-10T06:35:40.971Z,1009.92
2018-05-10T06:36:40.942Z,1009.95
2018-05-10T06:37:40.819Z,1009.97
2018-05-10T06:38:40.869Z,1010.03
2018-05-10T06:39:40.959Z,1010.05
2018-05-10T06:40:41.064Z,1010.08
2018-05-10T06:41:41.044Z,1010.08
2018-05-10T06:42:41.014Z,1010.1
2018-05-10T06:43:41.045Z,1010.14
2018-05-10T06:44:40.858Z,1010.17
2018-05-10T06:45:40.974Z,1010.18
2018-05-10T06:46:40.998Z,1010.19
2018-05-10T06:47:40.904Z,1010.17
2018-05-10T06:48:40.837Z,1010.22
2018-05-10T06:49:40.947Z,1010.24
2018-05-10T06:50:41.100Z,1010.23
2018-05-10T06:51:41.095Z,1010.22
2018-05-10T06:52:40.879Z,1010.22
2018-05-10T06:53:41.029Z,1010.21
2018-05-10T06:54:41.134Z,1010.21
2018-05-10T06:55:40.868Z,1010.22
2018-05-10T06:56:40.988Z,1010.18
2018-05-10T06:57:40.880Z,1010.15
2018-05-10T06:58:41.190Z,1010.16
2018-05-10T06:59:50.865Z,1010.2
2018-05-10T07:00:40.875Z,1010.18
2018-05-10T07:01:41.056Z,1010.16
2018-05-10T07:02:41.060Z,1010.16
2018-05-10T07:03:41.100Z,1010.13
2018-05-10T07:04:40.849Z,1010.15
2018-05-10T07:05:41.048Z,1010.12
2018-05-10T07:06:40.849Z,1010.1
2018-05-10T07:07:41.077Z,1010.11
2018-05-10T07:08:40.863Z,1010.12
2018-05-10T07:09:41.349Z,1010.1
2018-05-10T07:10:41.427Z,1010.13
2018-05-10T07:11:40.808Z,1010.16
2018-05-10T07:12:41.139Z,1010.09
2018-05-10T07:13:40.938Z,1010.13
2018-05-10T07:14:40.997Z,1010.12
2018-05-10T07:15:41.271Z,1010.17
2018-05-10T07:16:40.898Z,1010.15
2018-05-10T07:17:40.994Z,1010.19
2018-05-10T07:18:40.929Z,1010.23
2018-05-10T07:19:41.055Z,1010.25
2018-05-10T07:20:41.146Z,1010.29
2018-05-10T07:21:40.994Z,1010.3
2018-05-10T07:22:40.880Z,1010.37
2018-05-10T07:23:40.991Z,1010.37
2018-05-10T07:24:41.063Z,1010.43
2018-05-10T07:25:41.064Z,1010.41
2018-05-10T07:26:41.034Z,1010.45
2018-05-10T07:27:40.774Z,1010.46
2018-05-10T07:28:41.016Z,1010.42
2018-05-10T07:29:41.029Z,1010.4
2018-05-10T07:30:40.959Z,1010.45
2018-05-10T07:31:40.894Z,1010.4
2018-05-10T07:32:40.970Z,1010.36
2018-05-10T07:33:41.017Z,1010.38
2018-05-10T07:34:41.017Z,1010.36
2018-05-10T07:35:40.951Z,1010.36
2018-05-10T07:36:41.017Z,1010.37
2018-05-10T07:37:41.092Z,1010.35
2018-05-10T07:38:40.836Z,1010.32
2018-05-10T07:39:40.821Z,1010.34
2018-05-10T07:40:41.021Z,1010.36
2018-05-10T07:41:41.045Z,1010.38
2018-05-10T07:42:40.866Z,1010.41
2018-05-10T07:43:40.898Z,1010.42
2018-05-10T07:44:40.859Z,1010.41
2018-05-10T07:45:40.862Z,1010.49
2018-05-10T07:46:41.041Z,1010.5
2018-05-10T07:47:40.817Z,1010.51
2018-05-10T07:48:40.985Z,1010.53
2018-05-10T07:49:40.830Z,1010.57
2018-05-10T07:50:40.877Z,1010.63
2018-05-10T07:51:40.895Z,1010.62
2018-05-10T07:52:40.988Z,1010.64
2018-05-10T07:53:40.965Z,1010.69
2018-05-10T07:54:41.084Z,1010.69
2018-05-10T07:55:40.896Z,1010.7
2018-05-10T07:56:40.764Z,1010.76
2018-05-10T07:57:40.869Z,1010.81
2018-05-10T07:58:40.994Z,1010.77
2018-05-10T07:59:40.958Z,1010.83
2018-05-10T08:00:40.985Z,1010.85
2018-05-10T08:01:41.053Z,1010.94
2018-05-10T08:02:40.896Z,1010.94
2018-05-10T08:03:41.043Z,1010.97
2018-05-10T08:04:40.969Z,1011.01
2018-05-10T08:05:41.078Z,1011.1
2018-05-10T08:06:40.976Z,1011.12
2018-05-10T08:07:40.783Z,1011.11
2018-05-10T08:08:40.923Z,1011.17
2018-05-10T08:09:40.947Z,1011.21
2018-05-10T08:10:41.070Z,1011.21
2018-05-10T08:11:40.894Z,1011.25
2018-05-10T08:12:41.001Z,1011.25
2018-05-10T08:13:40.925Z,1011.28
2018-05-10T08:14:41.042Z,1011.26
2018-05-10T08:15:40.935Z,1011.29
2018-05-10T08:16:41.085Z,1011.3
2018-05-10T08:17:40.929Z,1011.31
2018-05-10T08:18:40.925Z,1011.31
2018-05-10T08:19:40.980Z,1011.28
2018-05-10T08:20:41.058Z,1011.33
2018-05-10T08:21:41.070Z,1011.33
2018-05-10T08:22:40.960Z,1011.37
2018-05-10T08:23:40.921Z,1011.32
2018-05-10T08:24:41.127Z,1011.37
2018-05-10T08:25:40.854Z,1011.38
2018-05-10T08:26:41.016Z,1011.37
2018-05-10T08:27:40.953Z,1011.39
2018-05-10T08:28:41.118Z,1011.45
2018-05-10T08:29:41.093Z,1011.41
2018-05-10T08:30:41.113Z,1011.43
2018-05-10T08:31:40.947Z,1011.44
2018-05-10T08:32:40.880Z,1011.42
2018-05-10T08:33:41.061Z,1011.47
2018-05-10T08:34:40.929Z,1011.48
2018-05-10T08:35:41.244Z,1011.47
2018-05-10T08:36:41.205Z,1011.46
2018-05-10T08:37:40.825Z,1011.48
2018-05-10T08:38:40.998Z,1011.54
2018-05-10T08:39:41.084Z,1011.54
2018-05-10T08:40:40.880Z,1011.57
2018-05-10T08:41:40.950Z,1011.58
2018-05-10T08:42:40.976Z,1011.59
2018-05-10T08:43:41.032Z,1011.62
2018-05-10T08:44:40.959Z,1011.64
2018-05-10T08:45:40.850Z,1011.6
2018-05-10T08:46:41.034Z,1011.6
2018-05-10T08:47:40.907Z,1011.63
2018-05-10T08:48:41.041Z,1011.68
2018-05-10T08:49:40.901Z,1011.68
2018-05-10T08:50:41.013Z,1011.68
2018-05-10T08:51:40.829Z,1011.74
2018-05-10T08:52:41.049Z,1011.74
2018-05-10T08:53:40.866Z,1011.76
2018-05-10T08:54:41.013Z,1011.8
2018-05-10T08:55:40.985Z,1011.8
2018-05-10T08:56:40.819Z,1011.86
2018-05-10T08:57:40.873Z,1011.86
2018-05-10T08:59:00.872Z,1011.84
2018-05-10T08:59:41.013Z,1011.87
2018-05-10T09:00:40.981Z,1011.89
2018-05-10T09:01:41.022Z,1011.87
2018-05-10T09:02:40.832Z,1011.88
2018-05-10T09:03:40.841Z,1011.92
2018-05-10T09:04:41.224Z,1011.9
2018-05-10T09:05:40.902Z,1011.9
2018-05-10T09:06:41.149Z,1011.95
2018-05-10T09:07:40.830Z,1011.89
2018-05-10T09:08:40.945Z,1011.92
2018-05-10T09:09:40.981Z,1011.93
2018-05-10T09:10:40.997Z,1011.94
2018-05-10T09:11:40.942Z,1011.95
2018-05-10T09:12:40.776Z,1011.97
2018-05-10T09:13:40.880Z,1012
2018-05-10T09:14:40.985Z,1012.02
2018-05-10T09:15:40.893Z,1012.02
2018-05-10T09:16:41.082Z,1012.09
2018-05-10T09:17:40.983Z,1012.08
2018-05-10T09:18:40.971Z,1012.12
2018-05-10T09:19:41.068Z,1012.13
2018-05-10T09:20:41.064Z,1012.12
2018-05-10T09:21:41.202Z,1012.12
2018-05-10T09:22:41.083Z,1012.18
2018-05-10T09:23:40.900Z,1012.18
2018-05-10T09:24:41.139Z,1012.18
2018-05-10T09:25:41.014Z,1012.18
2018-05-10T09:27:10.889Z,1012.24
2018-05-10T09:27:41.029Z,1012.24
2018-05-10T09:28:41.140Z,1012.27
2018-05-10T09:29:40.951Z,1012.21
2018-05-10T09:30:41.077Z,1012.28
2018-05-10T09:31:41.250Z,1012.31
2018-05-10T09:32:40.883Z,1012.3
2018-05-10T09:33:40.864Z,1012.36
2018-05-10T09:34:41.013Z,1012.35
2018-05-10T09:35:40.863Z,1012.31
2018-05-10T09:36:41.249Z,1012.38
2018-05-10T09:37:40.901Z,1012.47
2018-05-10T09:38:43.343Z,1012.42
2018-05-10T09:39:41.105Z,1012.43
2018-05-10T09:40:40.924Z,1012.5
2018-05-10T09:41:40.900Z,1012.5
2018-05-10T09:42:40.852Z,1012.49
2018-05-10T09:43:41.093Z,1012.5
2018-05-10T09:44:41.077Z,1012.48
2018-05-10T09:45:41.040Z,1012.55
2018-05-10T09:46:40.991Z,1012.52
2018-05-10T09:47:40.964Z,1012.59
2018-05-10T09:48:41.161Z,1012.58
2018-05-10T09:49:40.960Z,1012.65
2018-05-10T09:50:40.874Z,1012.63
2018-05-10T09:51:40.973Z,1012.62
2018-05-10T09:52:41.147Z,1012.69
2018-05-10T09:53:41.225Z,1012.67
2018-05-10T09:54:40.842Z,1012.73
2018-05-10T09:55:41.048Z,1012.69
2018-05-10T09:56:40.901Z,1012.73
2018-05-10T09:57:41.307Z,1012.79
2018-05-10T09:58:40.892Z,1012.73
2018-05-10T09:59:41.168Z,1012.75
2018-05-10T10:00:40.941Z,1012.8
2018-05-10T10:01:41.080Z,1012.81
2018-05-10T10:02:41.126Z,1012.78
2018-05-10T10:03:40.825Z,1012.82
2018-05-10T10:04:41.003Z,1012.79
2018-05-10T10:05:40.898Z,1012.84
2018-05-10T10:06:41.110Z,1012.87
2018-05-10T10:07:40.985Z,1012.82
2018-05-10T10:08:41.012Z,1012.85
2018-05-10T10:09:40.947Z,1012.88
2018-05-10T10:10:41.116Z,1012.91
2018-05-10T10:11:41.256Z,1012.92
2018-05-10T10:12:40.822Z,1012.86
2018-05-10T10:13:40.884Z,1012.9
2018-05-10T10:14:41.000Z,1012.95
2018-05-10T10:15:20.658Z,1012.89
2018-05-10T10:16:20.590Z,1012.94
2018-05-10T10:17:20.850Z,1012.97
2018-05-10T10:18:20.837Z,1012.97
2018-05-10T10:19:20.711Z,1012.99
2018-05-10T10:20:20.858Z,1012.97
2018-05-10T10:21:20.705Z,1013.04
2018-05-10T10:22:20.674Z,1013.01
2018-05-10T10:23:20.721Z,1013.02
2018-05-10T10:24:20.838Z,1013.03
2018-05-10T10:25:21.139Z,1012.99
2018-05-10T10:26:20.642Z,1013.03
2018-05-10T10:27:20.928Z,1013.07
2018-05-10T10:28:20.791Z,1013.05
2018-05-10T10:29:20.648Z,1013.1
2018-05-10T10:30:20.707Z,1013.04
2018-05-10T10:31:20.771Z,1013.13
2018-05-10T10:32:21.020Z,1013.11
2018-05-10T10:33:20.810Z,1013.12
2018-05-10T10:34:20.808Z,1013.1
2018-05-10T10:35:20.739Z,1013.15
2018-05-10T10:36:20.823Z,1013.14
2018-05-10T10:37:21.053Z,1013.13
2018-05-10T10:38:21.124Z,1013.13
2018-05-10T10:39:20.727Z,1013.17
2018-05-10T10:40:20.834Z,1013.14
2018-05-10T10:41:20.552Z,1013.24
2018-05-10T10:42:20.685Z,1013.14
2018-05-10T10:43:20.801Z,1013.21
2018-05-10T10:44:20.729Z,1013.21
2018-05-10T10:45:20.901Z,1013.25
2018-05-10T10:46:20.818Z,1013.21
2018-05-10T10:47:20.856Z,1013.19
2018-05-10T10:48:20.898Z,1013.28
2018-05-10T10:49:20.948Z,1013.29
2018-05-10T10:50:20.736Z,1013.3
2018-05-10T10:51:20.474Z,1013.3
2018-05-10T10:52:20.809Z,1013.32
2018-05-10T10:53:20.802Z,1013.32
2018-05-10T10:54:20.826Z,1013.38
2018-05-10T10:55:20.717Z,1013.42
2018-05-10T10:56:20.667Z,1013.43
2018-05-10T10:57:20.859Z,1013.48
2018-05-10T10:58:20.809Z,1013.46
2018-05-10T10:59:20.884Z,1013.5
2018-05-10T11:00:20.658Z,1013.55
2018-05-10T11:01:20.766Z,1013.56
2018-05-10T11:02:20.550Z,1013.57
2018-05-10T11:03:20.946Z,1013.55
2018-05-10T11:04:20.712Z,1013.56
2018-05-10T11:05:20.626Z,1013.61
2018-05-10T11:06:20.813Z,1013.64
2018-05-10T11:07:20.856Z,1013.66
2018-05-10T11:08:20.751Z,1013.65
2018-05-10T11:09:20.742Z,1013.63
2018-05-10T11:10:20.913Z,1013.66
2018-05-10T11:11:20.915Z,1013.72
2018-05-10T11:12:20.709Z,1013.73
2018-05-10T11:13:20.717Z,1013.71
2018-05-10T11:14:20.755Z,1013.75
2018-05-10T11:15:20.576Z,1013.73
2018-05-10T11:16:20.613Z,1013.77
2018-05-10T11:17:20.925Z,1013.78
2018-05-10T11:18:20.805Z,1013.73
2018-05-10T11:19:20.790Z,1013.79
2018-05-10T11:20:20.752Z,1013.8
2018-05-10T11:21:20.707Z,1013.76
2018-05-10T11:22:20.594Z,1013.78
2018-05-10T11:23:20.710Z,1013.81
2018-05-10T11:24:20.816Z,1013.81
2018-05-10T11:25:20.635Z,1013.84
2018-05-10T11:26:20.680Z,1013.82
2018-05-10T11:27:21.108Z,1013.81
2018-05-10T11:28:20.690Z,1013.85
2018-05-10T11:29:20.703Z,1013.88
2018-05-10T11:30:20.854Z,1013.87
2018-05-10T11:31:20.830Z,1013.82
2018-05-10T11:32:20.667Z,1013.89
2018-05-10T11:33:21.096Z,1013.88
2018-05-10T11:34:20.698Z,1013.89
2018-05-10T11:35:20.850Z,1013.94
2018-05-10T11:36:20.865Z,1013.93
2018-05-10T11:37:20.838Z,1013.96
2018-05-10T11:38:20.691Z,1013.95
2018-05-10T11:39:20.705Z,1013.96
2018-05-10T11:40:20.588Z,1013.98
2018-05-10T11:41:20.622Z,1014
2018-05-10T11:42:20.782Z,1014.03
2018-05-10T11:43:20.636Z,1014.02
2018-05-10T11:44:20.781Z,1014.04
2018-05-10T11:45:20.595Z,1014.02
2018-05-10T11:46:20.707Z,1014.04
2018-05-10T11:47:20.611Z,1014.06
2018-05-10T11:48:20.779Z,1014.07
2018-05-10T11:49:20.772Z,1014.1
2018-05-10T11:50:20.645Z,1014.1
2018-05-10T11:51:20.577Z,1014.09
2018-05-10T11:52:20.770Z,1014.11
2018-05-10T11:53:20.674Z,1014.11
2018-05-10T11:54:20.606Z,1014.13
2018-05-10T11:55:20.649Z,1014.16
2018-05-10T11:56:20.621Z,1014.17
2018-05-10T11:57:20.825Z,1014.19
2018-05-10T11:58:20.726Z,1014.19
2018-05-10T11:59:20.678Z,1014.19
2018-05-10T12:00:20.650Z,1014.25
2018-05-10T12:01:20.803Z,1014.22
2018-05-10T12:02:20.841Z,1014.22
2018-05-10T12:03:20.741Z,1014.3
2018-05-10T12:04:20.648Z,1014.28
2018-05-10T12:05:20.658Z,1014.29
2018-05-10T12:06:20.528Z,1014.32
2018-05-10T12:07:20.584Z,1014.34